createdAt,value
2023-05-25T00:02:56.253Z,100245.38
2023-05-25T00:07:58.133Z,100249.59
2023-05-25T00:12:59.831Z,100251.31
2023-05-25T00:18:01.540Z,100248.75
2023-05-25T00:23:03.298Z,100246.22
2023-05-25T00:28:04.979Z,100251.31
2023-05-25T00:33:06.874Z,100251.31
2023-05-25T00:38:16.698Z,100247.09
2023-05-25T00:43:19.727Z,100256.38
2023-05-25T00:48:23.042Z,100263.13
2023-05-25T00:53:24.741Z,100259.75
2023-05-25T00:58:31.015Z,100261.47
2023-05-25T01:03:38.011Z,100254.75
2023-05-25T01:08:44.563Z,100261.50
2023-05-25T01:13:48.008Z,100246.28
2023-05-25T01:18:52.824Z,100249.66
2023-05-25T01:24:12.789Z,100251.34
2023-05-25T01:29:16.679Z,100232.69
2023-05-25T01:34:19.665Z,100248.59
2023-05-25T01:39:22.773Z,100251.88
2023-05-25T01:44:26.543Z,100254.34
2023-05-25T01:49:41.909Z,100253.44
2023-05-25T01:55:13.198Z,100247.53
2023-05-25T02:00:16.137Z,100256.75
2023-05-25T02:05:20.158Z,100255.81
2023-05-25T02:10:21.893Z,100268.50
2023-05-25T02:15:24.511Z,100270.97
2023-05-25T02:20:28.157Z,100275.22
2023-05-25T02:25:29.857Z,100281.06
2023-05-25T02:30:31.567Z,100286.06
2023-05-25T02:35:33.601Z,100293.66
2023-05-25T02:40:36.182Z,100289.41
2023-05-25T02:45:37.957Z,100289.38
2023-05-25T02:50:40.463Z,100306.19
2023-05-25T02:55:46.371Z,100312.91
2023-05-25T03:00:54.662Z,100321.34
2023-05-25T03:05:57.246Z,100329.69
2023-05-25T03:10:59.039Z,100333.13
2023-05-25T03:16:01.662Z,100330.59
2023-05-25T03:21:04.068Z,100324.69
2023-05-25T03:26:06.251Z,100323.00
2023-05-25T03:31:08.616Z,100328.97
2023-05-25T03:36:12.373Z,100335.84
2023-05-25T03:41:14.216Z,100335.22
2023-05-25T03:46:16.033Z,100344.69
2023-05-25T03:51:18.552Z,100343.16
2023-05-25T03:56:21.333Z,100347.53
2023-05-25T04:01:26.344Z,100345.91
2023-05-25T04:06:30.126Z,100341.72
2023-05-25T04:11:32.197Z,100350.16
2023-05-25T04:16:33.891Z,100353.47
2023-05-25T04:21:36.878Z,100346.63
2023-05-25T04:26:41.701Z,100341.41
2023-05-25T04:31:45.764Z,100347.25
2023-05-25T04:37:08.841Z,100338.53
2023-05-25T04:42:12.871Z,100340.03
2023-05-25T04:47:14.566Z,100338.88
2023-05-25T04:52:16.339Z,100341.22
2023-05-25T04:57:19.825Z,100349.34
2023-05-25T05:02:22.203Z,100342.78
2023-05-25T05:07:23.953Z,100336.16
2023-05-25T05:12:25.931Z,100334.81
2023-05-25T05:17:31.215Z,100335.28
2023-05-25T05:22:33.711Z,100344.84
2023-05-25T05:27:36.189Z,100341.34
2023-05-25T05:32:46.721Z,100339.19
2023-05-25T05:37:49.531Z,100345.81
2023-05-25T05:42:51.206Z,100347.41
2023-05-25T05:47:53.273Z,100346.72
2023-05-25T05:52:56.126Z,100337.75
2023-05-25T05:57:58.414Z,100345.41
2023-05-25T06:03:01.118Z,100354.13
2023-05-25T06:08:06.019Z,100352.38
2023-05-25T06:13:11.803Z,100346.47
2023-05-25T06:18:14.024Z,100349.91
2023-05-25T06:23:15.881Z,100348.16
2023-05-25T06:28:17.912Z,100360.13
2023-05-25T06:33:19.662Z,100354.03
2023-05-25T06:38:22.010Z,100352.63
2023-05-25T06:43:23.706Z,100365.22
2023-05-25T06:48:40.233Z,100361.72
2023-05-25T06:53:44.545Z,100364.94
2023-05-25T06:58:46.489Z,100359.13
2023-05-25T07:03:48.315Z,100367.13
2023-05-25T07:08:49.954Z,100367.50
2023-05-25T07:13:51.635Z,100369.88
2023-05-25T07:18:53.255Z,100365.06
2023-05-25T07:23:55.772Z,100365.41
2023-05-25T07:28:57.912Z,100359.91
2023-05-25T07:33:59.564Z,100355.94
2023-05-25T07:39:01.645Z,100374.44
2023-05-25T07:44:03.292Z,100368.88
2023-05-25T07:49:06.391Z,100370.41
2023-05-25T07:54:08.036Z,100381.84
2023-05-25T07:59:10.908Z,100371.66
2023-05-25T08:04:12.984Z,100364.22
2023-05-25T08:09:15.019Z,100356.31
2023-05-25T08:14:16.959Z,100366.94
2023-05-25T08:19:18.756Z,100367.44
2023-05-25T08:24:20.385Z,100366.25
2023-05-25T08:29:22.284Z,100373.59
2023-05-25T08:34:23.947Z,100376.81
2023-05-25T08:39:25.669Z,100375.75
2023-05-25T08:44:29.124Z,100370.69
2023-05-25T08:49:33.630Z,100364.13
2023-05-25T08:54:36.959Z,100362.88
2023-05-25T08:59:52.141Z,100354.88
2023-05-25T09:04:54.936Z,100354.84
2023-05-25T09:09:57.886Z,100380.72
2023-05-25T09:14:59.808Z,100383.56
2023-05-25T09:20:01.961Z,100388.25
2023-05-25T09:25:10.891Z,100379.38
2023-05-25T09:30:12.820Z,100387.94
2023-05-25T09:35:15.507Z,100390.06
2023-05-25T09:40:17.686Z,100378.47
2023-05-25T09:45:19.585Z,100377.38
2023-05-25T09:50:21.480Z,100369.31
2023-05-25T09:55:23.171Z,100381.19
2023-05-25T10:00:25.296Z,100375.97
2023-05-25T10:05:27.290Z,100370.13
2023-05-25T10:10:29.688Z,100375.13
2023-05-25T10:15:31.899Z,100360.25
2023-05-25T10:20:35.268Z,100356.19
2023-05-25T10:25:44.473Z,100357.75
2023-05-25T10:30:46.630Z,100381.81
2023-05-25T10:36:02.428Z,100362.00
2023-05-25T10:41:11.904Z,100359.94
2023-05-25T10:46:15.223Z,100354.56
2023-05-25T10:51:19.822Z,100354.44
2023-05-25T10:56:21.583Z,100347.69
2023-05-25T11:01:23.627Z,100347.97
2023-05-25T11:06:45.805Z,100347.88
2023-05-25T11:11:47.433Z,100351.84
2023-05-25T11:17:08.260Z,100346.66
2023-05-25T11:22:14.132Z,100339.34
2023-05-25T11:27:15.941Z,100326.06
2023-05-25T11:32:17.791Z,100319.44
2023-05-25T11:37:21.405Z,100320.41
2023-05-25T11:42:24.821Z,100318.88
2023-05-25T11:47:26.819Z,100309.13
2023-05-25T11:52:28.916Z,100300.38
2023-05-25T11:57:30.640Z,100310.63
2023-05-25T12:02:38.649Z,100311.56
2023-05-25T12:07:44.823Z,100292.81
2023-05-25T12:12:51.765Z,100304.50
2023-05-25T12:17:54.356Z,100308.69
2023-05-25T12:22:57.815Z,100285.72
2023-05-25T12:28:12.359Z,100299.38
2023-05-25T12:33:15.605Z,100285.41
2023-05-25T12:38:20.116Z,100300.81
2023-05-25T12:43:21.825Z,100283.28
2023-05-25T12:48:27.797Z,100291.25
2023-05-25T12:53:31.232Z,100281.91
2023-05-25T12:58:33.091Z,100271.56
2023-05-25T13:03:35.033Z,100261.09
2023-05-25T13:08:36.934Z,100238.66
2023-05-25T13:13:38.582Z,100245.28
2023-05-25T13:18:40.269Z,100251.44
2023-05-25T13:23:41.942Z,100239.31
2023-05-25T13:28:43.772Z,100244.00
2023-05-25T13:33:45.550Z,100243.13
2023-05-25T13:38:47.173Z,100231.16
2023-05-25T13:43:48.959Z,100242.19
2023-05-25T13:48:50.684Z,100229.84
2023-05-25T13:53:53.595Z,100225.09
2023-05-25T13:58:55.367Z,100213.75
2023-05-25T14:03:58.303Z,100230.25
2023-05-25T14:09:00.452Z,100231.31
2023-05-25T14:14:02.891Z,100219.97
2023-05-25T14:19:05.279Z,100221.16
2023-05-25T14:24:06.985Z,100227.56
2023-05-25T14:29:09.075Z,100228.56
2023-05-25T14:34:11.468Z,100211.00
2023-05-25T14:39:15.760Z,100220.84
2023-05-25T14:44:18.852Z,100218.72
2023-05-25T14:49:24.775Z,100205.19
2023-05-25T14:54:26.819Z,100211.66
2023-05-25T14:59:28.484Z,100212.53
2023-05-25T15:04:31.596Z,100189.84
2023-05-25T15:09:33.982Z,100202.06
2023-05-25T15:14:39.988Z,100199.28
2023-05-25T15:19:41.614Z,100198.75
2023-05-25T15:24:43.293Z,100192.50
2023-05-25T15:29:45.978Z,100173.97
2023-05-25T15:34:47.604Z,100182.91
2023-05-25T15:39:49.217Z,100184.38
2023-05-25T15:44:50.852Z,100181.31
2023-05-25T15:49:52.507Z,100172.63
2023-05-25T15:54:54.163Z,100165.91
2023-05-25T15:59:56.040Z,100165.44
2023-05-25T16:04:57.819Z,100161.13
2023-05-25T16:09:59.688Z,100161.91
2023-05-25T16:15:01.384Z,100157.22
2023-05-25T16:20:03.244Z,100152.59
2023-05-25T16:25:05.288Z,100147.50
2023-05-25T16:30:07.622Z,100150.63
2023-05-25T16:35:09.516Z,100149.91
2023-05-25T16:40:11.475Z,100165.00
2023-05-25T16:45:13.150Z,100152.59
2023-05-25T16:50:15.006Z,100150.66
2023-05-25T16:55:16.860Z,100158.44
2023-05-25T17:00:18.799Z,100144.34
2023-05-25T17:05:20.510Z,100150.69
2023-05-25T17:10:22.268Z,100149.69
2023-05-25T17:15:23.953Z,100169.16
2023-05-25T17:20:25.678Z,100164.00
2023-05-25T17:25:28.214Z,100147.47
2023-05-25T17:30:30.752Z,100158.41
2023-05-25T17:35:32.395Z,100165.28
2023-05-25T17:40:34.199Z,100158.78
2023-05-25T17:45:35.902Z,100174.03
2023-05-25T17:50:37.626Z,100170.53
2023-05-25T17:55:39.265Z,100163.66
2023-05-25T18:00:41.020Z,100170.06
2023-05-25T18:05:43.292Z,100174.41
2023-05-25T18:10:47.114Z,100184.28
2023-05-25T18:15:48.810Z,100186.47
2023-05-25T18:20:50.996Z,100192.78
2023-05-25T18:25:53.193Z,100192.50
2023-05-25T18:30:54.905Z,100204.09
2023-05-25T18:35:57.969Z,100198.34
2023-05-25T18:40:59.673Z,100215.56
2023-05-25T18:46:01.328Z,100218.94
2023-05-25T18:51:03.274Z,100223.13
2023-05-25T18:56:05.074Z,100219.53
2023-05-25T19:01:06.816Z,100230.44
2023-05-25T19:06:08.500Z,100228.09
2023-05-25T19:11:10.135Z,100238.03
2023-05-25T19:16:12.157Z,100234.44
2023-05-25T19:21:13.925Z,100226.91
2023-05-25T19:26:16.427Z,100232.06
2023-05-25T19:31:18.127Z,100237.38
2023-05-25T19:36:19.730Z,100235.97
2023-05-25T19:41:21.630Z,100238.75
2023-05-25T19:46:23.319Z,100249.19
2023-05-25T19:51:25.260Z,100252.84
2023-05-25T19:56:27.627Z,100251.31
2023-05-25T20:01:29.408Z,100258.34
2023-05-25T20:06:31.490Z,100271.31
2023-05-25T20:11:33.155Z,100274.00
2023-05-25T20:16:35.000Z,100286.56
2023-05-25T20:21:37.137Z,100295.19
2023-05-25T20:26:39.237Z,100299.56
2023-05-25T20:31:41.118Z,100309.06
2023-05-25T20:36:42.812Z,100304.56
2023-05-25T20:41:44.473Z,100316.25
2023-05-25T20:46:46.093Z,100329.41
2023-05-25T20:51:50.598Z,100329.28
2023-05-25T20:56:52.323Z,100338.25
2023-05-25T21:01:54.226Z,100331.94
2023-05-25T21:06:55.988Z,100324.03
2023-05-25T21:11:57.654Z,100323.09
2023-05-25T21:16:59.318Z,100327.13
2023-05-25T21:22:01.232Z,100329.84
2023-05-25T21:27:03.400Z,100323.16
2023-05-25T21:32:05.262Z,100330.81
2023-05-25T21:37:06.906Z,100341.88
2023-05-25T21:42:09.756Z,100330.25
2023-05-25T21:47:11.620Z,100346.06
2023-05-25T21:52:13.385Z,100356.25
2023-05-25T21:57:15.327Z,100356.28
2023-05-25T22:02:17.159Z,100356.22
2023-05-25T22:07:18.874Z,100357.00
2023-05-25T22:12:20.504Z,100367.19
2023-05-25T22:17:22.185Z,100371.50
2023-05-25T22:22:23.952Z,100359.88
2023-05-25T22:27:26.343Z,100366.81
2023-05-25T22:32:28.036Z,100376.19
2023-05-25T22:37:29.731Z,100375.38
2023-05-25T22:42:31.384Z,100377.16
2023-05-25T22:47:33.177Z,100380.66
2023-05-25T22:52:34.795Z,100375.56
2023-05-25T22:57:36.887Z,100378.16
2023-05-25T23:02:38.530Z,100378.22
2023-05-25T23:07:40.278Z,100375.75
2023-05-25T23:12:42.033Z,100380.88
2023-05-25T23:17:43.658Z,100369.09
2023-05-25T23:22:45.959Z,100367.50
2023-05-25T23:27:47.766Z,100370.94
2023-05-25T23:32:49.936Z,100372.59
2023-05-25T23:37:52.148Z,100358.25
2023-05-25T23:42:53.888Z,100369.31
2023-05-25T23:47:55.690Z,100362.66
2023-05-25T23:52:57.406Z,100366.88
2023-05-25T23:57:59.059Z,100361.81
